sensor_id;sensor_type;location;lat;lon;timestamp;P1;durP1;ratioP1;P2;durP2;ratioP2
26858;SDS011;14429;48.346;16.338;2022-10-31T00:01:23;9.85;;;4.30;;
26858;SDS011;14429;48.346;16.338;2022-10-31T00:03:49;5.93;;;3.53;;
26858;SDS011;14429;48.346;16.338;2022-10-31T00:06:15;7.88;;;4.13;;
26858;SDS011;14429;48.346;16.338;2022-10-31T00:08:40;6.05;;;3.60;;
26858;SDS011;14429;48.346;16.338;2022-10-31T00:11:08;8.15;;;4.40;;
26858;SDS011;14429;48.346;16.338;2022-10-31T00:13:33;7.97;;;4.70;;
26858;SDS011;14429;48.346;16.338;2022-10-31T00:16:00;7.78;;;4.18;;
26858;SDS011;14429;48.346;16.338;2022-10-31T00:18:25;6.63;;;3.90;;
26858;SDS011;14429;48.346;16.338;2022-10-31T00:20:57;7.38;;;4.72;;
26858;SDS011;14429;48.346;16.338;2022-10-31T00:23:23;6.72;;;3.92;;
26858;SDS011;14429;48.346;16.338;2022-10-31T00:25:49;6.35;;;3.88;;
26858;SDS011;14429;48.346;16.338;2022-10-31T00:28:14;7.75;;;4.40;;
26858;SDS011;14429;48.346;16.338;2022-10-31T00:30:40;6.60;;;3.67;;
26858;SDS011;14429;48.346;16.338;2022-10-31T00:33:07;7.97;;;4.22;;
26858;SDS011;14429;48.346;16.338;2022-10-31T00:35:32;7.93;;;3.72;;
26858;SDS011;14429;48.346;16.338;2022-10-31T00:37:57;6.68;;;4.03;;
26858;SDS011;14429;48.346;16.338;2022-10-31T00:40:23;8.10;;;4.13;;
26858;SDS011;14429;48.346;16.338;2022-10-31T00:42:48;5.85;;;3.17;;
26858;SDS011;14429;48.346;16.338;2022-10-31T00:45:14;5.70;;;3.50;;
26858;SDS011;14429;48.346;16.338;2022-10-31T00:47:39;7.15;;;3.97;;
26858;SDS011;14429;48.346;16.338;2022-10-31T00:50:06;7.32;;;3.80;;
26858;SDS011;14429;48.346;16.338;2022-10-31T00:52:32;8.93;;;4.28;;
26858;SDS011;14429;48.346;16.338;2022-10-31T00:54:58;7.65;;;3.78;;
26858;SDS011;14429;48.346;16.338;2022-10-31T00:57:24;5.32;;;3.47;;
26858;SDS011;14429;48.346;16.338;2022-10-31T00:59:49;13.45;;;6.15;;
26858;SDS011;14429;48.346;16.338;2022-10-31T01:02:15;7.38;;;4.13;;
26858;SDS011;14429;48.346;16.338;2022-10-31T01:04:40;6.82;;;3.88;;
26858;SDS011;14429;48.346;16.338;2022-10-31T01:07:07;6.47;;;3.65;;
26858;SDS011;14429;48.346;16.338;2022-10-31T01:09:32;6.88;;;3.78;;
26858;SDS011;14429;48.346;16.338;2022-10-31T01:11:58;6.65;;;3.88;;
26858;SDS011;14429;48.346;16.338;2022-10-31T01:14:23;7.43;;;4.03;;
26858;SDS011;14429;48.346;16.338;2022-10-31T01:16:49;8.32;;;4.35;;
26858;SDS011;14429;48.346;16.338;2022-10-31T01:19:14;7.65;;;3.97;;
26858;SDS011;14429;48.346;16.338;2022-10-31T01:21:40;8.90;;;3.90;;
26858;SDS011;14429;48.346;16.338;2022-10-31T01:24:07;8.85;;;4.45;;
26858;SDS011;14429;48.346;16.338;2022-10-31T01:26:33;6.15;;;3.78;;
26858;SDS011;14429;48.346;16.338;2022-10-31T01:28:59;7.13;;;4.22;;
26858;SDS011;14429;48.346;16.338;2022-10-31T01:31:27;6.75;;;3.80;;
26858;SDS011;14429;48.346;16.338;2022-10-31T01:33:56;5.82;;;3.47;;
26858;SDS011;14429;48.346;16.338;2022-10-31T01:36:23;5.78;;;3.85;;
26858;SDS011;14429;48.346;16.338;2022-10-31T01:38:51;6.40;;;4.32;;
26858;SDS011;14429;48.346;16.338;2022-10-31T01:41:19;6.93;;;3.78;;
26858;SDS011;14429;48.346;16.338;2022-10-31T01:43:48;5.95;;;3.45;;
26858;SDS011;14429;48.346;16.338;2022-10-31T01:46:15;6.18;;;3.35;;
26858;SDS011;14429;48.346;16.338;2022-10-31T01:48:45;7.10;;;3.83;;
26858;SDS011;14429;48.346;16.338;2022-10-31T01:51:11;7.00;;;3.58;;
26858;SDS011;14429;48.346;16.338;2022-10-31T01:53:39;5.40;;;3.40;;
26858;SDS011;14429;48.346;16.338;2022-10-31T01:56:07;5.80;;;3.53;;
26858;SDS011;14429;48.346;16.338;2022-10-31T01:58:34;5.57;;;3.67;;
26858;SDS011;14429;48.346;16.338;2022-10-31T02:01:00;7.25;;;3.70;;
26858;SDS011;14429;48.346;16.338;2022-10-31T02:03:27;7.68;;;3.85;;
26858;SDS011;14429;48.346;16.338;2022-10-31T02:05:54;6.65;;;3.85;;
26858;SDS011;14429;48.346;16.338;2022-10-31T02:08:21;6.30;;;3.25;;
26858;SDS011;14429;48.346;16.338;2022-10-31T02:10:51;6.28;;;3.80;;
26858;SDS011;14429;48.346;16.338;2022-10-31T02:13:17;5.50;;;3.65;;
26858;SDS011;14429;48.346;16.338;2022-10-31T02:15:46;8.07;;;3.75;;
26858;SDS011;14429;48.346;16.338;2022-10-31T02:18:15;5.05;;;3.33;;
26858;SDS011;14429;48.346;16.338;2022-10-31T02:20:44;5.38;;;3.58;;
26858;SDS011;14429;48.346;16.338;2022-10-31T02:23:35;5.88;;;3.50;;
26858;SDS011;14429;48.346;16.338;2022-10-31T02:26:31;6.15;;;3.17;;
26858;SDS011;14429;48.346;16.338;2022-10-31T02:32:20;5.53;;;3.42;;
26858;SDS011;14429;48.346;16.338;2022-10-31T02:34:51;9.10;;;3.55;;
26858;SDS011;14429;48.346;16.338;2022-10-31T02:37:23;6.43;;;3.65;;
26858;SDS011;14429;48.346;16.338;2022-10-31T02:39:55;6.70;;;3.40;;
26858;SDS011;14429;48.346;16.338;2022-10-31T02:42:29;6.38;;;3.75;;
26858;SDS011;14429;48.346;16.338;2022-10-31T02:45:03;6.97;;;3.45;;
26858;SDS011;14429;48.346;16.338;2022-10-31T02:47:36;7.80;;;4.03;;
26858;SDS011;14429;48.346;16.338;2022-10-31T02:50:03;5.78;;;3.38;;
26858;SDS011;14429;48.346;16.338;2022-10-31T02:52:32;4.50;;;2.83;;
26858;SDS011;14429;48.346;16.338;2022-10-31T02:55:08;8.32;;;3.80;;
26858;SDS011;14429;48.346;16.338;2022-10-31T02:57:35;5.85;;;3.47;;
26858;SDS011;14429;48.346;16.338;2022-10-31T03:00:02;6.32;;;3.30;;
26858;SDS011;14429;48.346;16.338;2022-10-31T03:02:33;5.70;;;3.60;;
26858;SDS011;14429;48.346;16.338;2022-10-31T03:05:11;5.72;;;3.22;;
26858;SDS011;14429;48.346;16.338;2022-10-31T03:07:51;4.40;;;3.05;;
26858;SDS011;14429;48.346;16.338;2022-10-31T03:10:24;5.10;;;2.95;;
26858;SDS011;14429;48.346;16.338;2022-10-31T03:13:01;5.43;;;3.45;;
26858;SDS011;14429;48.346;16.338;2022-10-31T03:15:33;5.78;;;3.35;;
26858;SDS011;14429;48.346;16.338;2022-10-31T03:18:06;6.65;;;3.55;;
26858;SDS011;14429;48.346;16.338;2022-10-31T03:20:35;4.50;;;2.63;;
26858;SDS011;14429;48.346;16.338;2022-10-31T03:23:04;5.38;;;3.05;;
26858;SDS011;14429;48.346;16.338;2022-10-31T03:25:33;4.90;;;3.03;;
26858;SDS011;14429;48.346;16.338;2022-10-31T03:28:01;5.63;;;3.55;;
26858;SDS011;14429;48.346;16.338;2022-10-31T03:30:29;5.93;;;3.22;;
26858;SDS011;14429;48.346;16.338;2022-10-31T03:32:57;4.78;;;3.35;;
26858;SDS011;14429;48.346;16.338;2022-10-31T03:35:28;6.00;;;3.67;;
26858;SDS011;14429;48.346;16.338;2022-10-31T03:37:55;6.63;;;3.47;;
26858;SDS011;14429;48.346;16.338;2022-10-31T03:40:23;3.97;;;2.70;;
26858;SDS011;14429;48.346;16.338;2022-10-31T03:42:53;5.22;;;3.13;;
26858;SDS011;14429;48.346;16.338;2022-10-31T03:45:23;7.75;;;3.42;;
26858;SDS011;14429;48.346;16.338;2022-10-31T03:47:51;5.97;;;3.20;;
26858;SDS011;14429;48.346;16.338;2022-10-31T03:50:19;6.20;;;3.83;;
26858;SDS011;14429;48.346;16.338;2022-10-31T03:52:48;4.90;;;2.90;;
26858;SDS011;14429;48.346;16.338;2022-10-31T03:55:20;4.80;;;3.05;;
26858;SDS011;14429;48.346;16.338;2022-10-31T03:57:52;4.68;;;3.00;;
26858;SDS011;14429;48.346;16.338;2022-10-31T04:00:22;4.60;;;2.60;;
26858;SDS011;14429;48.346;16.338;2022-10-31T04:02:50;5.43;;;3.38;;
26858;SDS011;14429;48.346;16.338;2022-10-31T04:05:21;6.72;;;2.75;;
26858;SDS011;14429;48.346;16.338;2022-10-31T04:07:49;4.38;;;2.70;;
26858;SDS011;14429;48.346;16.338;2022-10-31T04:10:18;4.07;;;2.88;;
26858;SDS011;14429;48.346;16.338;2022-10-31T04:12:48;3.80;;;2.40;;
26858;SDS011;14429;48.346;16.338;2022-10-31T04:15:17;5.28;;;3.03;;
26858;SDS011;14429;48.346;16.338;2022-10-31T04:17:45;5.30;;;2.67;;
26858;SDS011;14429;48.346;16.338;2022-10-31T04:20:14;7.32;;;2.60;;
26858;SDS011;14429;48.346;16.338;2022-10-31T04:22:41;7.45;;;3.33;;
26858;SDS011;14429;48.346;16.338;2022-10-31T04:25:08;3.92;;;2.55;;
26858;SDS011;14429;48.346;16.338;2022-10-31T04:27:33;3.72;;;2.55;;
26858;SDS011;14429;48.346;16.338;2022-10-31T04:29:59;5.80;;;2.97;;
26858;SDS011;14429;48.346;16.338;2022-10-31T04:32:24;6.53;;;3.13;;
26858;SDS011;14429;48.346;16.338;2022-10-31T04:34:50;3.75;;;2.35;;
26858;SDS011;14429;48.346;16.338;2022-10-31T04:37:15;5.38;;;2.70;;
26858;SDS011;14429;48.346;16.338;2022-10-31T04:39:41;3.58;;;2.10;;
26858;SDS011;14429;48.346;16.338;2022-10-31T04:42:07;4.43;;;2.70;;
26858;SDS011;14429;48.346;16.338;2022-10-31T04:44:33;2.88;;;1.98;;
26858;SDS011;14429;48.346;16.338;2022-10-31T04:46:58;5.10;;;2.95;;
26858;SDS011;14429;48.346;16.338;2022-10-31T04:49:24;4.13;;;2.58;;
26858;SDS011;14429;48.346;16.338;2022-10-31T04:51:49;4.22;;;2.65;;
26858;SDS011;14429;48.346;16.338;2022-10-31T04:54:14;4.18;;;2.70;;
26858;SDS011;14429;48.346;16.338;2022-10-31T04:56:40;4.40;;;2.60;;
26858;SDS011;14429;48.346;16.338;2022-10-31T04:59:07;4.00;;;2.40;;
26858;SDS011;14429;48.346;16.338;2022-10-31T05:01:32;4.03;;;2.45;;
26858;SDS011;14429;48.346;16.338;2022-10-31T05:03:57;3.60;;;2.35;;
26858;SDS011;14429;48.346;16.338;2022-10-31T05:06:23;3.63;;;2.20;;
26858;SDS011;14429;48.346;16.338;2022-10-31T05:08:48;3.33;;;2.10;;
26858;SDS011;14429;48.346;16.338;2022-10-31T05:11:14;3.80;;;2.05;;
26858;SDS011;14429;48.346;16.338;2022-10-31T05:13:39;4.18;;;2.67;;
26858;SDS011;14429;48.346;16.338;2022-10-31T05:16:06;3.15;;;2.03;;
26858;SDS011;14429;48.346;16.338;2022-10-31T05:18:32;4.10;;;2.70;;
26858;SDS011;14429;48.346;16.338;2022-10-31T05:20:57;3.83;;;2.50;;
26858;SDS011;14429;48.346;16.338;2022-10-31T05:23:23;2.75;;;2.15;;
26858;SDS011;14429;48.346;16.338;2022-10-31T05:25:48;3.33;;;2.45;;
26858;SDS011;14429;48.346;16.338;2022-10-31T05:28:14;3.35;;;2.17;;
26858;SDS011;14429;48.346;16.338;2022-10-31T05:30:39;3.83;;;2.45;;
26858;SDS011;14429;48.346;16.338;2022-10-31T05:33:06;6.93;;;2.55;;
26858;SDS011;14429;48.346;16.338;2022-10-31T05:35:32;3.88;;;2.60;;
26858;SDS011;14429;48.346;16.338;2022-10-31T05:37:58;4.63;;;2.65;;
26858;SDS011;14429;48.346;16.338;2022-10-31T05:40:24;3.67;;;2.45;;
26858;SDS011;14429;48.346;16.338;2022-10-31T05:42:51;3.83;;;2.42;;
26858;SDS011;14429;48.346;16.338;2022-10-31T05:45:17;4.00;;;2.38;;
26858;SDS011;14429;48.346;16.338;2022-10-31T05:47:49;4.95;;;2.40;;
26858;SDS011;14429;48.346;16.338;2022-10-31T05:50:16;3.72;;;2.38;;
26858;SDS011;14429;48.346;16.338;2022-10-31T05:52:42;4.40;;;2.50;;
26858;SDS011;14429;48.346;16.338;2022-10-31T05:55:08;2.83;;;1.85;;
26858;SDS011;14429;48.346;16.338;2022-10-31T05:57:33;3.08;;;1.80;;
26858;SDS011;14429;48.346;16.338;2022-10-31T05:59:59;3.05;;;2.10;;
26858;SDS011;14429;48.346;16.338;2022-10-31T06:02:24;4.05;;;2.30;;
26858;SDS011;14429;48.346;16.338;2022-10-31T06:04:50;3.28;;;2.03;;
26858;SDS011;14429;48.346;16.338;2022-10-31T06:07:17;2.65;;;1.92;;
26858;SDS011;14429;48.346;16.338;2022-10-31T06:09:42;3.40;;;2.28;;
26858;SDS011;14429;48.346;16.338;2022-10-31T06:12:07;5.22;;;2.70;;
26858;SDS011;14429;48.346;16.338;2022-10-31T06:14:33;2.85;;;2.20;;
26858;SDS011;14429;48.346;16.338;2022-10-31T06:16:58;3.85;;;2.40;;
26858;SDS011;14429;48.346;16.338;2022-10-31T06:19:24;3.25;;;2.20;;
26858;SDS011;14429;48.346;16.338;2022-10-31T06:21:49;2.78;;;1.75;;
26858;SDS011;14429;48.346;16.338;2022-10-31T06:24:16;2.75;;;1.88;;
26858;SDS011;14429;48.346;16.338;2022-10-31T06:26:41;3.63;;;1.80;;
26858;SDS011;14429;48.346;16.338;2022-10-31T06:29:07;2.47;;;1.90;;
26858;SDS011;14429;48.346;16.338;2022-10-31T06:31:33;2.92;;;2.08;;
26858;SDS011;14429;48.346;16.338;2022-10-31T06:33:59;2.80;;;2.03;;
26858;SDS011;14429;48.346;16.338;2022-10-31T06:36:24;3.05;;;1.85;;
26858;SDS011;14429;48.346;16.338;2022-10-31T06:38:50;2.42;;;1.83;;
26858;SDS011;14429;48.346;16.338;2022-10-31T06:41:16;3.30;;;2.10;;
26858;SDS011;14429;48.346;16.338;2022-10-31T06:43:42;2.13;;;1.70;;
26858;SDS011;14429;48.346;16.338;2022-10-31T06:46:07;2.38;;;1.75;;
26858;SDS011;14429;48.346;16.338;2022-10-31T06:48:33;2.40;;;1.73;;
26858;SDS011;14429;48.346;16.338;2022-10-31T06:50:58;2.47;;;1.80;;
26858;SDS011;14429;48.346;16.338;2022-10-31T06:53:24;3.92;;;1.73;;
26858;SDS011;14429;48.346;16.338;2022-10-31T06:55:49;3.28;;;2.20;;
26858;SDS011;14429;48.346;16.338;2022-10-31T06:58:16;2.75;;;1.70;;
26858;SDS011;14429;48.346;16.338;2022-10-31T07:00:42;2.40;;;1.60;;
26858;SDS011;14429;48.346;16.338;2022-10-31T07:03:09;3.67;;;2.13;;
26858;SDS011;14429;48.346;16.338;2022-10-31T07:05:36;3.30;;;2.22;;
26858;SDS011;14429;48.346;16.338;2022-10-31T07:08:03;4.68;;;2.10;;
26858;SDS011;14429;48.346;16.338;2022-10-31T07:10:30;2.42;;;1.80;;
26858;SDS011;14429;48.346;16.338;2022-10-31T07:12:58;3.13;;;1.92;;
26858;SDS011;14429;48.346;16.338;2022-10-31T07:15:26;2.92;;;1.90;;
26858;SDS011;14429;48.346;16.338;2022-10-31T07:17:53;3.50;;;1.65;;
26858;SDS011;14429;48.346;16.338;2022-10-31T07:20:19;2.75;;;2.00;;
26858;SDS011;14429;48.346;16.338;2022-10-31T07:22:45;3.60;;;2.20;;
26858;SDS011;14429;48.346;16.338;2022-10-31T07:25:11;2.40;;;1.65;;
26858;SDS011;14429;48.346;16.338;2022-10-31T07:27:36;3.25;;;1.88;;
26858;SDS011;14429;48.346;16.338;2022-10-31T07:30:02;4.40;;;2.17;;
26858;SDS011;14429;48.346;16.338;2022-10-31T07:32:36;2.25;;;1.60;;
26858;SDS011;14429;48.346;16.338;2022-10-31T07:35:02;1.70;;;1.50;;
26858;SDS011;14429;48.346;16.338;2022-10-31T07:37:29;2.53;;;1.70;;
26858;SDS011;14429;48.346;16.338;2022-10-31T07:39:55;4.05;;;2.10;;
26858;SDS011;14429;48.346;16.338;2022-10-31T07:42:20;3.30;;;2.13;;
26858;SDS011;14429;48.346;16.338;2022-10-31T07:44:46;3.88;;;2.25;;
26858;SDS011;14429;48.346;16.338;2022-10-31T07:47:11;2.35;;;1.63;;
26858;SDS011;14429;48.346;16.338;2022-10-31T07:49:38;3.20;;;2.05;;
26858;SDS011;14429;48.346;16.338;2022-10-31T07:52:03;2.15;;;1.80;;
26858;SDS011;14429;48.346;16.338;2022-10-31T07:54:29;3.53;;;1.95;;
26858;SDS011;14429;48.346;16.338;2022-10-31T07:56:54;2.63;;;1.60;;
26858;SDS011;14429;48.346;16.338;2022-10-31T07:59:20;3.67;;;2.10;;
26858;SDS011;14429;48.346;16.338;2022-10-31T08:01:45;2.58;;;1.60;;
26858;SDS011;14429;48.346;16.338;2022-10-31T08:04:10;3.30;;;1.70;;
26858;SDS011;14429;48.346;16.338;2022-10-31T08:06:37;2.20;;;1.90;;
26858;SDS011;14429;48.346;16.338;2022-10-31T08:09:03;3.80;;;2.10;;
26858;SDS011;14429;48.346;16.338;2022-10-31T08:11:29;2.92;;;1.77;;
26858;SDS011;14429;48.346;16.338;2022-10-31T08:13:54;2.50;;;1.50;;
26858;SDS011;14429;48.346;16.338;2022-10-31T08:16:20;2.17;;;1.50;;
26858;SDS011;14429;48.346;16.338;2022-10-31T08:18:45;2.65;;;1.98;;
26858;SDS011;14429;48.346;16.338;2022-10-31T08:21:11;2.03;;;1.20;;
26858;SDS011;14429;48.346;16.338;2022-10-31T08:23:37;2.42;;;1.60;;
26858;SDS011;14429;48.346;16.338;2022-10-31T08:26:03;3.65;;;1.50;;
26858;SDS011;14429;48.346;16.338;2022-10-31T08:28:28;2.55;;;1.63;;
26858;SDS011;14429;48.346;16.338;2022-10-31T08:30:54;2.75;;;1.70;;
26858;SDS011;14429;48.346;16.338;2022-10-31T08:33:19;3.53;;;1.92;;
26858;SDS011;14429;48.346;16.338;2022-10-31T08:35:45;2.80;;;2.00;;
26858;SDS011;14429;48.346;16.338;2022-10-31T08:38:11;2.22;;;1.60;;
26858;SDS011;14429;48.346;16.338;2022-10-31T08:40:38;2.33;;;1.70;;
26858;SDS011;14429;48.346;16.338;2022-10-31T08:43:05;3.25;;;1.63;;
26858;SDS011;14429;48.346;16.338;2022-10-31T08:45:32;2.22;;;1.70;;
26858;SDS011;14429;48.346;16.338;2022-10-31T08:47:58;3.72;;;2.20;;
26858;SDS011;14429;48.346;16.338;2022-10-31T08:50:25;2.08;;;1.65;;
26858;SDS011;14429;48.346;16.338;2022-10-31T08:52:51;2.15;;;1.42;;
26858;SDS011;14429;48.346;16.338;2022-10-31T08:55:17;2.78;;;1.67;;
26858;SDS011;14429;48.346;16.338;2022-10-31T08:57:44;2.70;;;1.70;;
26858;SDS011;14429;48.346;16.338;2022-10-31T09:00:09;7.00;;;3.20;;
26858;SDS011;14429;48.346;16.338;2022-10-31T09:02:35;1.80;;;1.40;;
26858;SDS011;14429;48.346;16.338;2022-10-31T09:05:01;3.00;;;1.58;;
26858;SDS011;14429;48.346;16.338;2022-10-31T09:07:26;2.10;;;1.63;;
26858;SDS011;14429;48.346;16.338;2022-10-31T09:09:52;4.57;;;2.97;;
26858;SDS011;14429;48.346;16.338;2022-10-31T09:12:17;2.47;;;1.63;;
26858;SDS011;14429;48.346;16.338;2022-10-31T09:14:44;1.52;;;1.40;;
26858;SDS011;14429;48.346;16.338;2022-10-31T09:17:09;2.88;;;1.58;;
26858;SDS011;14429;48.346;16.338;2022-10-31T09:19:34;3.20;;;1.73;;
26858;SDS011;14429;48.346;16.338;2022-10-31T09:22:00;8.63;;;4.30;;
26858;SDS011;14429;48.346;16.338;2022-10-31T09:24:25;4.18;;;2.40;;
26858;SDS011;14429;48.346;16.338;2022-10-31T09:26:51;4.38;;;2.63;;
26858;SDS011;14429;48.346;16.338;2022-10-31T09:29:16;3.78;;;2.53;;
26858;SDS011;14429;48.346;16.338;2022-10-31T09:31:44;3.70;;;2.00;;
26858;SDS011;14429;48.346;16.338;2022-10-31T09:34:09;1.90;;;1.40;;
26858;SDS011;14429;48.346;16.338;2022-10-31T09:36:35;2.50;;;1.50;;
26858;SDS011;14429;48.346;16.338;2022-10-31T09:39:00;2.28;;;1.48;;
26858;SDS011;14429;48.346;16.338;2022-10-31T09:41:27;2.75;;;1.65;;
26858;SDS011;14429;48.346;16.338;2022-10-31T09:43:57;1.40;;;1.15;;
26858;SDS011;14429;48.346;16.338;2022-10-31T09:46:31;3.92;;;1.42;;
26858;SDS011;14429;48.346;16.338;2022-10-31T09:49:16;2.85;;;1.65;;
26858;SDS011;14429;48.346;16.338;2022-10-31T09:51:59;1.92;;;1.40;;
26858;SDS011;14429;48.346;16.338;2022-10-31T09:54:29;3.05;;;1.98;;
26858;SDS011;14429;48.346;16.338;2022-10-31T09:56:59;2.65;;;1.75;;
26858;SDS011;14429;48.346;16.338;2022-10-31T09:59:28;2.13;;;1.30;;
26858;SDS011;14429;48.346;16.338;2022-10-31T10:01:57;3.58;;;2.65;;
26858;SDS011;14429;48.346;16.338;2022-10-31T10:04:32;6.95;;;3.50;;
26858;SDS011;14429;48.346;16.338;2022-10-31T10:07:05;5.68;;;3.00;;
26858;SDS011;14429;48.346;16.338;2022-10-31T10:09:37;2.95;;;1.77;;
26858;SDS011;14429;48.346;16.338;2022-10-31T10:12:06;5.47;;;3.08;;
26858;SDS011;14429;48.346;16.338;2022-10-31T10:14:42;2.65;;;1.77;;
26858;SDS011;14429;48.346;16.338;2022-10-31T10:17:21;3.78;;;1.98;;
26858;SDS011;14429;48.346;16.338;2022-10-31T10:22:56;6.20;;;3.30;;
26858;SDS011;14429;48.346;16.338;2022-10-31T10:25:33;10.63;;;4.03;;
26858;SDS011;14429;48.346;16.338;2022-10-31T10:28:06;6.88;;;4.03;;
26858;SDS011;14429;48.346;16.338;2022-10-31T10:30:39;7.43;;;3.50;;
26858;SDS011;14429;48.346;16.338;2022-10-31T10:33:09;3.65;;;1.90;;
26858;SDS011;14429;48.346;16.338;2022-10-31T10:35:38;9.25;;;4.95;;
26858;SDS011;14429;48.346;16.338;2022-10-31T10:38:10;8.52;;;4.60;;
26858;SDS011;14429;48.346;16.338;2022-10-31T10:40:41;5.72;;;2.35;;
26858;SDS011;14429;48.346;16.338;2022-10-31T10:43:12;3.13;;;1.70;;
26858;SDS011;14429;48.346;16.338;2022-10-31T10:45:45;9.60;;;4.47;;
26858;SDS011;14429;48.346;16.338;2022-10-31T10:48:15;9.45;;;4.00;;
26858;SDS011;14429;48.346;16.338;2022-10-31T10:50:50;6.65;;;4.13;;
26858;SDS011;14429;48.346;16.338;2022-10-31T10:53:24;4.72;;;3.00;;
26858;SDS011;14429;48.346;16.338;2022-10-31T10:56:08;6.57;;;4.15;;
26858;SDS011;14429;48.346;16.338;2022-10-31T10:58:40;10.48;;;4.40;;
26858;SDS011;14429;48.346;16.338;2022-10-31T11:01:09;12.13;;;5.22;;
26858;SDS011;14429;48.346;16.338;2022-10-31T11:03:36;11.68;;;4.55;;
26858;SDS011;14429;48.346;16.338;2022-10-31T11:06:04;11.43;;;4.80;;
26858;SDS011;14429;48.346;16.338;2022-10-31T11:08:30;13.68;;;4.50;;
26858;SDS011;14429;48.346;16.338;2022-10-31T11:10:58;5.93;;;3.63;;
26858;SDS011;14429;48.346;16.338;2022-10-31T11:13:25;7.07;;;3.50;;
26858;SDS011;14429;48.346;16.338;2022-10-31T11:15:53;7.85;;;4.03;;
26858;SDS011;14429;48.346;16.338;2022-10-31T11:18:22;11.30;;;4.85;;
26858;SDS011;14429;48.346;16.338;2022-10-31T11:20:51;9.88;;;5.18;;
26858;SDS011;14429;48.346;16.338;2022-10-31T11:23:19;9.05;;;4.43;;
26858;SDS011;14429;48.346;16.338;2022-10-31T11:25:50;13.35;;;5.60;;
26858;SDS011;14429;48.346;16.338;2022-10-31T11:28:16;13.63;;;5.75;;
26858;SDS011;14429;48.346;16.338;2022-10-31T11:30:43;2.78;;;1.40;;
26858;SDS011;14429;48.346;16.338;2022-10-31T11:33:13;2.42;;;1.65;;
26858;SDS011;14429;48.346;16.338;2022-10-31T11:35:43;2.97;;;1.42;;
26858;SDS011;14429;48.346;16.338;2022-10-31T11:38:12;2.13;;;1.58;;
26858;SDS011;14429;48.346;16.338;2022-10-31T11:40:51;10.23;;;5.20;;
26858;SDS011;14429;48.346;16.338;2022-10-31T11:43:18;2.45;;;1.88;;
26858;SDS011;14429;48.346;16.338;2022-10-31T11:45:44;17.73;;;6.70;;
26858;SDS011;14429;48.346;16.338;2022-10-31T11:48:14;3.65;;;2.10;;
26858;SDS011;14429;48.346;16.338;2022-10-31T11:50:41;4.65;;;1.83;;
26858;SDS011;14429;48.346;16.338;2022-10-31T11:53:12;11.20;;;4.25;;
26858;SDS011;14429;48.346;16.338;2022-10-31T11:55:41;4.10;;;1.40;;
26858;SDS011;14429;48.346;16.338;2022-10-31T11:58:20;2.72;;;1.63;;
26858;SDS011;14429;48.346;16.338;2022-10-31T12:00:48;3.15;;;1.58;;
26858;SDS011;14429;48.346;16.338;2022-10-31T12:03:15;8.88;;;4.75;;
26858;SDS011;14429;48.346;16.338;2022-10-31T12:05:53;4.75;;;2.17;;
26858;SDS011;14429;48.346;16.338;2022-10-31T12:08:23;2.63;;;1.70;;
26858;SDS011;14429;48.346;16.338;2022-10-31T12:10:59;2.78;;;1.80;;
26858;SDS011;14429;48.346;16.338;2022-10-31T12:13:33;3.45;;;1.92;;
26858;SDS011;14429;48.346;16.338;2022-10-31T12:16:05;41.53;;;5.85;;
26858;SDS011;14429;48.346;16.338;2022-10-31T12:18:46;17.63;;;7.47;;
26858;SDS011;14429;48.346;16.338;2022-10-31T12:21:21;7.47;;;3.30;;
26858;SDS011;14429;48.346;16.338;2022-10-31T12:23:59;24.48;;;8.57;;
26858;SDS011;14429;48.346;16.338;2022-10-31T12:26:34;3.17;;;1.98;;
26858;SDS011;14429;48.346;16.338;2022-10-31T12:32:03;18.15;;;9.27;;
26858;SDS011;14429;48.346;16.338;2022-10-31T12:34:45;15.57;;;8.05;;
26858;SDS011;14429;48.346;16.338;2022-10-31T12:37:27;15.55;;;7.60;;
26858;SDS011;14429;48.346;16.338;2022-10-31T12:40:09;9.30;;;5.03;;
26858;SDS011;14429;48.346;16.338;2022-10-31T12:42:52;25.70;;;10.25;;
26858;SDS011;14429;48.346;16.338;2022-10-31T12:45:34;20.58;;;10.45;;
26858;SDS011;14429;48.346;16.338;2022-10-31T12:48:23;8.82;;;4.78;;
26858;SDS011;14429;48.346;16.338;2022-10-31T12:50:58;15.68;;;5.93;;
26858;SDS011;14429;48.346;16.338;2022-10-31T12:53:35;16.65;;;7.30;;
26858;SDS011;14429;48.346;16.338;2022-10-31T12:56:16;10.55;;;4.93;;
26858;SDS011;14429;48.346;16.338;2022-10-31T12:58:55;25.15;;;7.97;;
26858;SDS011;14429;48.346;16.338;2022-10-31T13:01:26;11.10;;;5.60;;
26858;SDS011;14429;48.346;16.338;2022-10-31T13:03:56;26.60;;;11.02;;
26858;SDS011;14429;48.346;16.338;2022-10-31T13:06:28;20.55;;;10.15;;
26858;SDS011;14429;48.346;16.338;2022-10-31T13:08:59;23.85;;;10.32;;
26858;SDS011;14429;48.346;16.338;2022-10-31T13:11:27;9.10;;;3.70;;
26858;SDS011;14429;48.346;16.338;2022-10-31T13:13:59;25.00;;;9.90;;
26858;SDS011;14429;48.346;16.338;2022-10-31T13:16:32;16.08;;;6.75;;
26858;SDS011;14429;48.346;16.338;2022-10-31T13:19:03;3.72;;;2.00;;
26858;SDS011;14429;48.346;16.338;2022-10-31T13:21:35;23.67;;;8.93;;
26858;SDS011;14429;48.346;16.338;2022-10-31T13:24:07;11.23;;;5.20;;
26858;SDS011;14429;48.346;16.338;2022-10-31T13:26:38;8.93;;;4.57;;
26858;SDS011;14429;48.346;16.338;2022-10-31T13:29:11;12.43;;;5.38;;
26858;SDS011;14429;48.346;16.338;2022-10-31T13:31:43;28.33;;;10.50;;
26858;SDS011;14429;48.346;16.338;2022-10-31T13:34:10;21.13;;;8.75;;
26858;SDS011;14429;48.346;16.338;2022-10-31T13:36:45;12.27;;;5.38;;
26858;SDS011;14429;48.346;16.338;2022-10-31T13:39:19;19.50;;;8.35;;
26858;SDS011;14429;48.346;16.338;2022-10-31T13:41:56;5.80;;;2.78;;
26858;SDS011;14429;48.346;16.338;2022-10-31T13:44:28;15.63;;;6.68;;
26858;SDS011;14429;48.346;16.338;2022-10-31T13:46:57;8.85;;;3.80;;
26858;SDS011;14429;48.346;16.338;2022-10-31T13:49:38;3.38;;;2.25;;
26858;SDS011;14429;48.346;16.338;2022-10-31T13:52:05;3.85;;;2.20;;
26858;SDS011;14429;48.346;16.338;2022-10-31T13:54:38;13.63;;;6.63;;
26858;SDS011;14429;48.346;16.338;2022-10-31T13:57:06;12.23;;;5.50;;
26858;SDS011;14429;48.346;16.338;2022-10-31T13:59:32;17.75;;;9.25;;
26858;SDS011;14429;48.346;16.338;2022-10-31T14:02:16;19.55;;;9.40;;
26858;SDS011;14429;48.346;16.338;2022-10-31T14:04:46;25.83;;;13.18;;
26858;SDS011;14429;48.346;16.338;2022-10-31T14:07:14;34.67;;;10.98;;
26858;SDS011;14429;48.346;16.338;2022-10-31T14:09:50;4.28;;;2.15;;
26858;SDS011;14429;48.346;16.338;2022-10-31T14:12:22;20.63;;;8.38;;
26858;SDS011;14429;48.346;16.338;2022-10-31T14:14:51;8.07;;;4.97;;
26858;SDS011;14429;48.346;16.338;2022-10-31T14:17:22;28.38;;;11.60;;
26858;SDS011;14429;48.346;16.338;2022-10-31T14:19:59;24.52;;;11.18;;
26858;SDS011;14429;48.346;16.338;2022-10-31T14:22:28;16.13;;;6.88;;
26858;SDS011;14429;48.346;16.338;2022-10-31T14:24:54;31.25;;;12.23;;
26858;SDS011;14429;48.346;16.338;2022-10-31T14:27:33;16.45;;;6.07;;
26858;SDS011;14429;48.346;16.338;2022-10-31T14:30:15;28.65;;;10.95;;
26858;SDS011;14429;48.346;16.338;2022-10-31T14:32:46;8.48;;;4.22;;
26858;SDS011;14429;48.346;16.338;2022-10-31T14:35:16;28.60;;;12.55;;
26858;SDS011;14429;48.346;16.338;2022-10-31T14:37:53;29.48;;;11.23;;
26858;SDS011;14429;48.346;16.338;2022-10-31T14:40:30;34.58;;;13.48;;
26858;SDS011;14429;48.346;16.338;2022-10-31T14:43:10;4.20;;;2.78;;
26858;SDS011;14429;48.346;16.338;2022-10-31T14:45:50;23.98;;;10.45;;
26858;SDS011;14429;48.346;16.338;2022-10-31T14:48:36;33.95;;;15.00;;
26858;SDS011;14429;48.346;16.338;2022-10-31T14:51:13;14.60;;;7.40;;